De Pere, Wisconsin
Current Conditions -  °F | °C
As of 5:53 PM on Saturday 22 Nov 2014 (Local Time) from KGRB Reporting Station
Moderate Fog Moderate Fog  
Wind Chill: 33°   Ceiling: 200
Heat Index: 37°   Visibility: 0.25mi
Dew Point: 36°   Wind: 5mph
Humidity: 96%   Direction: 180°S
Pressure: 29.78"   Gusts: NA
Location:  44.45°N, 88.08°W
Report Text: KGRB 222353Z 18004KT 1/4SM FG VV002 03/02 A2978 RMK AO2 SLP090 T00280022 10033 20028 53003 RVRNO
Loading
Personal Weather Stations






























Interactive Weather Map New forecast layout! Learn more

10-Day Weather Forecast

Advertisements
Track Severe Weather on mobile